Time;durP1;ratioP1;P1;durP2;ratioP2;P2;SDS_P1;SDS_P2;PMS_P1;PMS_P2;Temp;Humidity;BMP_temperature;BMP_pressure;BME280_temperature;BME280_humidity;BME280_pressure;Samples;Min_cycle;Max_cycle;Signal;HPM_P1;HPM_P2
2023/10/06 00:00:26;;;;;;;11.90;6.70;;;;;;;12.85;64.73;99750.05;105906;1253;71666;-77
2023/10/06 00:02:54;;;;;;;12.40;7.40;;;;;;;12.85;64.84;99752.19;106031;1257;71233;-75
2023/10/06 00:05:23;;;;;;;11.80;7.50;;;;;;;12.84;64.82;99754.71;105844;1253;60378;-75
2023/10/06 00:07:51;;;;;;;11.00;6.80;;;;;;;12.83;65.14;99750.08;105887;1253;60489;-76
2023/10/06 00:10:26;;;;;;;11.20;7.70;;;;;;;12.82;65.12;99748.73;105799;1259;73834;-77
2023/10/06 00:12:58;;;;;;;11.10;7.20;;;;;;;12.80;65.31;99756.63;105768;1253;70411;-77
2023/10/06 00:15:35;;;;;;;12.30;6.30;;;;;;;12.78;65.32;99755.45;105790;1253;72469;-75
2023/10/06 00:18:07;;;;;;;10.90;6.80;;;;;;;12.77;65.50;99756.02;105719;1253;60509;-74
2023/10/06 00:20:39;;;;;;;10.50;6.80;;;;;;;12.76;65.53;99750.66;105747;1258;60306;-75
2023/10/06 00:23:12;;;;;;;12.10;7.30;;;;;;;12.75;65.47;99755.05;105728;1259;73924;-75
2023/10/06 00:25:43;;;;;;;11.40;6.30;;;;;;;12.75;65.58;99749.21;105727;1253;70607;-74
2023/10/06 00:28:19;;;;;;;10.70;7.10;;;;;;;12.74;65.65;99749.64;105650;1253;72453;-76
2023/10/06 00:30:48;;;;;;;10.70;6.50;;;;;;;12.73;65.83;99756.86;105764;1256;60551;-76
2023/10/06 00:33:15;;;;;;;12.70;6.60;;;;;;;12.73;65.93;99750.90;106045;1260;60368;-75
2023/10/06 00:35:44;;;;;;;12.10;7.40;;;;;;;12.73;65.92;99748.58;106300;1257;73856;-74
2023/10/06 00:38:18;;;;;;;10.90;6.50;;;;;;;12.74;65.94;99746.98;105881;1253;68932;-76
2023/10/06 00:40:52;;;;;;;14.20;6.90;;;;;;;12.76;65.90;99747.83;106047;1253;72646;-74
2023/10/06 00:43:34;;;;;;;13.40;7.40;;;;;;;12.77;65.91;99745.19;106134;1256;60557;-74
2023/10/06 00:46:06;;;;;;;12.50;6.70;;;;;;;12.78;65.97;99745.41;106551;1258;60423;-73
2023/10/06 00:48:35;;;;;;;10.90;6.00;;;;;;;12.79;65.98;99744.04;106192;1258;73837;-72
2023/10/06 00:51:04;;;;;;;9.40;6.20;;;;;;;12.82;65.97;99751.05;105741;1262;68696;-73
2023/10/06 00:53:32;;;;;;;11.00;6.30;;;;;;;12.84;65.89;99749.39;105831;1257;72438;-74
2023/10/06 00:56:00;;;;;;;12.30;6.40;;;;;;;12.85;66.02;99749.52;105586;1258;60645;-72
2023/10/06 00:58:33;;;;;;;12.20;6.90;;;;;;;12.86;65.89;99753.92;105878;1253;60550;-74
2023/10/06 01:01:05;;;;;;;11.00;6.60;;;;;;;12.87;65.97;99748.36;105767;1253;72008;-74
2023/10/06 01:03:39;;;;;;;10.70;6.00;;;;;;;12.87;66.06;99747.17;106546;1257;69676;-71
2023/10/06 01:06:12;;;;;;;14.20;6.30;;;;;;;12.85;66.13;99743.20;106854;1253;71837;-74
2023/10/06 01:08:52;;;;;;;12.10;6.40;;;;;;;12.83;66.24;99739.91;106736;1254;60524;-78
2023/10/06 01:11:25;;;;;;;11.60;6.20;;;;;;;12.81;66.21;99742.46;108187;1253;59801;-73
2023/10/06 01:13:56;;;;;;;;;;;;;;;12.79;66.35;99745.00;108225;1253;72416;-76
2023/10/06 01:16:26;;;;;;;11.50;4.90;;;;;;;12.85;66.32;99743.04;106262;1256;68962;-74
2023/10/06 01:19:00;;;;;;;10.60;5.90;;;;;;;12.91;66.19;99747.68;105801;1256;72654;-75
2023/10/06 01:21:30;;;;;;;9.60;6.50;;;;;;;12.88;66.17;99747.64;106414;1253;60436;-75
2023/10/06 01:24:00;;;;;;;10.50;6.00;;;;;;;12.86;66.24;99743.88;106350;1253;59562;-76
2023/10/06 01:26:28;;;;;;;12.60;6.60;;;;;;;12.83;66.40;99743.06;106193;1256;74437;-76
2023/10/06 01:28:57;;;;;;;12.40;5.90;;;;;;;12.82;66.45;99745.88;105822;1259;68893;-73
2023/10/06 01:31:25;;;;;;;9.10;5.90;;;;;;;12.81;66.58;99746.55;105894;1260;70601;-76
2023/10/06 01:33:54;;;;;;;11.50;6.00;;;;;;;12.77;66.72;99750.70;105768;1253;60527;-76
2023/10/06 01:36:23;;;;;;;10.20;5.70;;;;;;;12.74;66.76;99748.95;105898;1258;60537;-74
2023/10/06 01:38:52;;;;;;;10.50;6.30;;;;;;;12.70;66.87;99748.73;105695;1258;73870;-75
2023/10/06 01:41:20;;;;;;;9.70;5.80;;;;;;;12.65;67.17;99744.59;105964;1253;70451;-74
2023/10/06 01:43:48;;;;;;;11.40;6.10;;;;;;;12.58;67.34;99745.88;106017;1253;71331;-74
2023/10/06 01:46:16;;;;;;;9.20;5.90;;;;;;;12.53;67.59;99748.09;106656;1253;61642;-73
2023/10/06 01:48:44;;;;;;;8.70;5.80;;;;;;;12.57;67.74;99751.31;106457;1254;60427;-73
2023/10/06 01:51:15;;;;;;;9.60;5.70;;;;;;;12.56;67.74;99750.55;105614;1253;72553;-74
2023/10/06 01:53:43;;;;;;;10.20;5.40;;;;;;;12.50;67.86;99754.98;105897;1253;70067;-73
2023/10/06 01:56:10;;;;;;;18.10;5.80;;;;;;;12.45;68.10;99753.09;105871;1253;72605;-75
2023/10/06 01:58:38;;;;;;;8.30;5.10;;;;;;;12.40;68.25;99752.93;105402;1253;60448;-73
2023/10/06 02:01:06;;;;;;;9.90;6.40;;;;;;;12.35;68.42;99757.94;105467;1253;60566;-70
2023/10/06 02:03:38;;;;;;;9.50;5.30;;;;;;;12.30;68.66;99758.38;105399;1253;75298;-72
2023/10/06 02:06:12;;;;;;;11.20;6.00;;;;;;;12.24;68.90;99758.89;105596;1258;69178;-73
2023/10/06 02:08:43;;;;;;;8.90;5.50;;;;;;;12.27;68.99;99758.20;105747;1254;71460;-73
2023/10/06 02:11:12;;;;;;;12.00;7.40;;;;;;;12.31;68.96;99763.23;105513;1254;61143;-73
2023/10/06 02:13:40;;;;;;;14.70;6.70;;;;;;;12.26;68.99;99763.96;105387;1258;60397;-72
2023/10/06 02:16:09;;;;;;;9.20;5.60;;;;;;;12.22;69.32;99760.08;105482;1253;72252;-74
2023/10/06 02:18:37;;;;;;;10.20;5.60;;;;;;;12.16;69.46;99769.03;105502;1258;69039;-73
2023/10/06 02:21:10;;;;;;;8.80;4.90;;;;;;;12.12;69.47;99772.33;105863;1257;71430;-74
2023/10/06 02:23:38;;;;;;;11.60;5.40;;;;;;;12.09;69.70;99775.95;105578;1259;60556;-73
2023/10/06 02:26:09;;;;;;;10.20;5.50;;;;;;;12.10;69.82;99781.47;105820;1254;60508;-74
2023/10/06 02:28:43;;;;;;;9.10;5.00;;;;;;;12.16;69.82;99781.45;105865;1253;73869;-75
2023/10/06 02:31:11;;;;;;;11.60;5.30;;;;;;;12.15;69.78;99784.23;106050;1256;68693;-73
2023/10/06 02:33:39;;;;;;;10.10;4.70;;;;;;;12.14;69.84;99782.83;105733;1257;71439;-74
2023/10/06 02:36:17;;;;;;;11.40;5.00;;;;;;;12.13;70.05;99784.70;105522;1258;60509;-74
2023/10/06 02:38:48;;;;;;;12.10;7.30;;;;;;;12.13;70.12;99788.05;105373;1259;60344;-76
2023/10/06 02:41:18;;;;;;;10.30;5.70;;;;;;;12.11;70.07;99786.65;105439;1253;73188;-73
2023/10/06 02:43:47;;;;;;;7.90;4.60;;;;;;;12.15;69.99;99784.09;106129;1253;69692;-74
2023/10/06 02:46:21;;;;;;;8.20;4.60;;;;;;;12.21;69.82;99779.12;106731;1253;71428;-72
2023/10/06 02:48:49;;;;;;;9.40;5.60;;;;;;;12.18;69.93;99782.83;106849;1254;60501;-75
2023/10/06 02:51:18;;;;;;;10.00;5.20;;;;;;;12.15;69.99;99784.86;107033;1253;60513;-74
2023/10/06 02:53:50;;;;;;;11.50;5.10;;;;;;;12.12;70.10;99782.27;106077;1254;73914;-76
2023/10/06 02:56:19;;;;;;;8.90;4.90;;;;;;;12.10;70.24;99779.36;106056;1253;70270;-76
2023/10/06 02:58:46;;;;;;;10.20;5.00;;;;;;;12.06;70.51;99776.06;105760;1259;71076;-77
2023/10/06 03:01:16;;;;;;;19.40;11.40;;;;;;;12.09;70.58;99776.41;106291;1257;60480;-77
2023/10/06 03:03:44;;;;;;;11.80;6.70;;;;;;;12.11;70.59;99779.02;106448;1253;60633;-76
2023/10/06 03:06:17;;;;;;;8.40;4.80;;;;;;;12.08;70.71;99780.18;105762;1258;73867;-77
2023/10/06 03:08:45;;;;;;;11.40;5.60;;;;;;;12.02;70.84;99779.77;105707;1260;69991;-75
2023/10/06 03:11:22;;;;;;;10.00;4.70;;;;;;;11.95;70.94;99781.89;105829;1253;72686;-77
2023/10/06 03:13:54;;;;;;;8.90;4.70;;;;;;;11.89;71.02;99781.51;105683;1254;60416;-77
2023/10/06 03:16:25;;;;;;;7.80;4.40;;;;;;;11.85;71.27;99783.42;105813;1258;60473;-77
2023/10/06 03:18:54;;;;;;;9.80;4.70;;;;;;;11.92;71.22;99787.23;105881;1253;73756;-80
2023/10/06 03:21:22;;;;;;;10.80;4.30;;;;;;;11.94;71.21;99789.12;105886;1256;69308;-77
2023/10/06 03:23:58;;;;;;;9.00;4.90;;;;;;;11.93;71.18;99794.25;105889;1253;72782;-75
2023/10/06 03:26:30;;;;;;;10.50;4.70;;;;;;;11.90;71.25;99789.02;105834;1257;60499;-77
2023/10/06 03:29:02;;;;;;;10.80;5.00;;;;;;;11.87;71.29;99787.13;105908;1253;60416;-77
2023/10/06 03:31:44;;;;;;;7.20;3.90;;;;;;;11.83;71.36;99784.70;105700;1258;72720;-77
2023/10/06 03:34:19;;;;;;;6.80;4.00;;;;;;;11.88;71.34;99787.73;106004;1259;68805;-78
2023/10/06 03:36:52;;;;;;;7.30;3.80;;;;;;;11.89;71.46;99789.20;106517;1255;72543;-78
2023/10/06 03:39:23;;;;;;;8.10;4.60;;;;;;;11.82;71.60;99787.78;106652;1256;60547;-75
2023/10/06 03:41:55;;;;;;;7.50;4.30;;;;;;;11.76;71.86;99788.33;106797;1257;60540;-77
2023/10/06 03:44:26;;;;;;;8.90;4.60;;;;;;;11.71;71.90;99787.88;107013;1257;72684;-77
2023/10/06 03:46:55;;;;;;;8.00;5.10;;;;;;;11.66;72.13;99790.93;106965;1253;70262;-76
2023/10/06 03:49:24;;;;;;;9.20;4.70;;;;;;;11.67;72.18;99789.77;106623;1257;72818;-78
2023/10/06 03:51:55;;;;;;;6.70;3.90;;;;;;;11.70;72.23;99789.95;107100;1254;60385;-78
2023/10/06 03:54:23;;;;;;;7.20;4.70;;;;;;;11.67;72.38;99790.67;105926;1253;60543;-77
2023/10/06 03:56:51;;;;;;;7.40;4.00;;;;;;;11.60;72.48;99789.93;105861;1253;72962;-77
2023/10/06 03:59:21;;;;;;;8.60;4.40;;;;;;;11.55;72.88;99788.59;105882;1258;70985;-76
2023/10/06 04:01:51;;;;;;;7.70;4.00;;;;;;;11.52;72.99;99786.48;105806;1259;71063;-77
2023/10/06 04:04:22;;;;;;;6.00;4.20;;;;;;;11.59;72.84;99786.39;105907;1253;60458;-77
2023/10/06 04:06:50;;;;;;;8.10;4.30;;;;;;;11.62;72.83;99787.46;105821;1259;60493;-77
2023/10/06 04:09:27;;;;;;;8.30;4.30;;;;;;;11.60;72.94;99790.13;105680;1253;72667;-76
2023/10/06 04:11:57;;;;;;;8.80;4.80;;;;;;;11.56;73.06;99789.31;105668;1257;68796;-75
2023/10/06 04:14:27;;;;;;;8.30;3.80;;;;;;;11.52;73.30;99790.70;105983;1252;71512;-76
2023/10/06 04:16:55;;;;;;;8.00;4.30;;;;;;;11.56;73.36;99793.45;106023;1254;60910;-75
2023/10/06 04:19:22;;;;;;;10.60;4.90;;;;;;;11.61;72.83;99796.41;106153;1258;60463;-74
2023/10/06 04:21:50;;;;;;;9.40;4.20;;;;;;;11.58;73.06;99798.02;105879;1259;73901;-75
2023/10/06 04:24:18;;;;;;;8.20;4.10;;;;;;;11.53;73.30;99801.94;105814;1257;70499;-79
2023/10/06 04:26:46;;;;;;;6.60;4.00;;;;;;;11.49;73.31;99805.95;105962;1254;72637;-77
2023/10/06 04:29:13;;;;;;;8.60;3.90;;;;;;;11.45;73.29;99808.69;105851;1252;60420;-81
2023/10/06 04:31:41;;;;;;;8.60;3.90;;;;;;;11.48;73.19;99809.71;105821;1253;60544;-77
2023/10/06 04:34:10;;;;;;;6.20;3.80;;;;;;;11.53;73.03;99812.08;105723;1253;73792;-77
2023/10/06 04:36:38;;;;;;;6.70;3.90;;;;;;;11.50;72.99;99813.46;105920;1253;70600;-77
2023/10/06 04:39:11;;;;;;;7.40;4.10;;;;;;;11.45;73.10;99815.57;105849;1253;71651;-76
2023/10/06 04:41:41;;;;;;;7.10;3.90;;;;;;;11.40;73.02;99817.25;106189;1253;60547;-76
2023/10/06 04:44:10;;;;;;;7.20;3.50;;;;;;;11.36;73.31;99825.58;106007;1254;60544;-77
2023/10/06 04:46:39;;;;;;;5.80;3.30;;;;;;;11.38;73.52;99831.42;107150;1253;72003;-75
2023/10/06 04:49:07;;;;;;;7.60;4.20;;;;;;;11.48;73.25;99831.02;108101;1253;68735;-76
2023/10/06 04:51:35;;;;;;;5.60;3.60;;;;;;;11.53;73.26;99834.89;107730;1254;71755;-77
2023/10/06 04:54:03;;;;;;;8.00;4.20;;;;;;;11.54;73.19;99832.48;106068;1259;61072;-79
2023/10/06 04:56:32;;;;;;;6.60;3.50;;;;;;;11.54;73.22;99831.40;106007;1258;60342;-79
2023/10/06 04:59:00;;;;;;;6.90;3.60;;;;;;;11.55;73.07;99832.79;105740;1256;72557;-78
2023/10/06 05:01:31;;;;;;;6.00;3.60;;;;;;;11.54;72.96;99831.30;105916;1259;68483;-78
2023/10/06 05:03:59;;;;;;;7.50;3.50;;;;;;;11.61;73.02;99839.92;105830;1258;72715;-77
2023/10/06 05:06:27;;;;;;;7.30;3.50;;;;;;;11.64;72.82;99842.96;107218;1253;61356;-77
2023/10/06 05:08:54;;;;;;;8.80;4.00;;;;;;;11.58;72.89;99847.60;108115;1253;60451;-77
2023/10/06 05:11:23;;;;;;;7.40;3.80;;;;;;;11.54;73.10;99851.42;106198;1253;73846;-77
2023/10/06 05:13:52;;;;;;;6.50;4.00;;;;;;;11.51;72.94;99848.58;105995;1258;69543;-76
2023/10/06 05:16:22;;;;;;;9.30;3.90;;;;;;;11.51;72.93;99854.46;106239;1255;73804;-77
2023/10/06 05:18:53;;;;;;;9.10;3.50;;;;;;;11.61;72.94;99855.49;108601;1253;60483;-77
2023/10/06 05:21:21;;;;;;;8.80;3.90;;;;;;;11.70;72.70;99861.70;106665;1258;60588;-77
2023/10/06 05:23:48;;;;;;;7.20;4.00;;;;;;;11.73;72.45;99864.63;105924;1256;73750;-76
2023/10/06 05:26:16;;;;;;;9.50;3.30;;;;;;;11.74;72.27;99863.83;105852;1259;69785;-77
2023/10/06 05:28:44;;;;;;;6.50;3.50;;;;;;;11.75;72.38;99871.80;105836;1257;71426;-78
2023/10/06 05:31:12;;;;;;;7.30;3.60;;;;;;;11.80;72.03;99869.35;105986;1254;60550;-78
2023/10/06 05:33:40;;;;;;;9.10;3.70;;;;;;;11.83;71.80;99867.77;106363;1258;60436;-78
2023/10/06 05:36:09;;;;;;;5.60;3.20;;;;;;;11.94;71.53;99869.34;105703;1259;72575;-78
2023/10/06 05:38:38;;;;;;;6.30;3.40;;;;;;;12.07;70.58;99872.35;105730;1259;68964;-79
2023/10/06 05:41:11;;;;;;;10.10;3.30;;;;;;;12.07;70.33;99873.95;105883;1257;71544;-77
2023/10/06 05:43:40;;;;;;;6.80;3.80;;;;;;;12.10;70.60;99877.20;105888;1259;60527;-77
2023/10/06 05:46:09;;;;;;;6.70;3.40;;;;;;;12.17;70.34;99882.22;106190;1254;60432;-77
2023/10/06 05:48:38;;;;;;;7.80;3.20;;;;;;;12.25;69.58;99885.39;108443;1253;73960;-79
2023/10/06 05:51:08;;;;;;;5.10;3.10;;;;;;;12.32;69.10;99882.63;108263;1253;70728;-78
2023/10/06 05:53:41;;;;;;;6.30;3.20;;;;;;;12.41;69.24;99887.02;106702;1253;71402;-80
2023/10/06 05:56:09;;;;;;;6.10;2.90;;;;;;;12.50;68.41;99889.98;106038;1253;60502;-83
2023/10/06 05:58:40;;;;;;;6.50;2.80;;;;;;;12.57;67.78;99899.89;105997;1257;60445;-80
2023/10/06 06:01:18;;;;;;;6.80;3.20;;;;;;;12.58;67.37;99900.02;106015;1258;73009;-79
2023/10/06 06:03:46;;;;;;;10.00;3.00;;;;;;;12.59;66.94;99900.50;105846;1259;68937;-79
2023/10/06 06:06:15;;;;;;;7.80;2.70;;;;;;;12.60;67.02;99900.36;105891;1254;71085;-79
2023/10/06 06:08:47;;;;;;;6.70;2.10;;;;;;;12.65;66.84;99905.33;106114;1255;60591;-79
2023/10/06 06:11:16;;;;;;;8.10;2.80;;;;;;;12.70;66.56;99911.48;105915;1253;60341;-81
2023/10/06 06:13:44;;;;;;;5.20;2.50;;;;;;;12.77;66.17;99912.14;106039;1253;73965;-79
2023/10/06 06:16:25;;;;;;;6.50;2.40;;;;;;;12.83;65.46;99913.52;105925;1259;69593;-79
2023/10/06 06:18:53;;;;;;;3.90;2.30;;;;;;;12.86;64.80;99919.99;105945;1253;72477;-78
2023/10/06 06:21:24;;;;;;;7.10;2.50;;;;;;;12.82;64.70;99919.58;105978;1257;60546;-78
2023/10/06 06:23:56;;;;;;;6.70;2.50;;;;;;;12.79;64.84;99925.27;105851;1259;60454;-77
2023/10/06 06:26:24;;;;;;;7.80;2.90;;;;;;;12.78;64.82;99926.22;105905;1257;73125;-77
2023/10/06 06:28:52;;;;;;;7.50;2.10;;;;;;;12.80;64.60;99928.98;105913;1257;69990;-78
2023/10/06 06:31:21;;;;;;;4.30;2.00;;;;;;;12.83;64.39;99931.28;105894;1255;72306;-79
2023/10/06 06:33:55;;;;;;;7.50;2.20;;;;;;;12.87;64.08;99927.64;105811;1257;60533;-81
2023/10/06 06:36:31;;;;;;;4.50;2.10;;;;;;;12.92;63.72;99929.42;105985;1259;60489;-78
2023/10/06 06:38:59;;;;;;;5.60;1.70;;;;;;;12.98;63.43;99944.17;105911;1257;72674;-78
2023/10/06 06:41:26;;;;;;;11.50;2.50;;;;;;;13.01;63.28;99942.19;105938;1259;258192;-77
2023/10/06 06:46:26;;;;;;;8.60;2.10;;;;;;;13.11;62.41;99943.29;103377;1292;600516;-79
2023/10/06 06:48:54;;;;;;;6.00;2.10;;;;;;;13.15;61.88;99948.40;107249;1266;60079;-80
2023/10/06 06:51:27;;;;;;;6.10;2.40;;;;;;;13.19;61.37;99953.10;108362;1255;58782;-79
2023/10/06 06:53:58;;;;;;;8.60;1.70;;;;;;;13.24;61.20;99954.81;107036;1256;70997;-79
2023/10/06 06:56:28;;;;;;;7.30;2.20;;;;;;;13.34;60.59;99945.52;105898;1256;68756;-79
2023/10/06 06:58:59;;;;;;;8.90;2.40;;;;;;;13.43;60.23;99948.95;105642;1260;214122;-78
2023/10/06 07:01:27;;;;;;;5.40;1.70;;;;;;;13.54;60.08;99950.02;105939;1254;60037;-79
2023/10/06 07:03:55;;;;;;;3.70;1.50;;;;;;;13.68;59.45;99957.58;105860;1254;59799;-78
2023/10/06 07:06:25;;;;;;;6.70;1.90;;;;;;;13.75;59.19;99958.30;105797;1253;71994;-79
2023/10/06 07:08:53;;;;;;;6.80;1.80;;;;;;;13.77;59.05;99959.64;105959;1254;70325;-80
2023/10/06 07:11:20;;;;;;;6.70;2.10;;;;;;;13.77;58.93;99959.80;105889;1253;73151;-79
2023/10/06 07:13:48;;;;;;;5.50;1.50;;;;;;;13.79;59.07;99961.23;105949;1258;59756;-80
2023/10/06 07:16:15;;;;;;;8.00;1.90;;;;;;;13.81;58.05;99968.59;106087;1254;58927;-80
2023/10/06 07:18:43;;;;;;;12.80;2.90;;;;;;;13.82;58.06;99962.06;106081;1253;70787;-77
2023/10/06 07:21:10;;;;;;;4.10;1.70;;;;;;;13.88;57.89;99966.33;106298;1253;70129;-80
2023/10/06 07:23:38;;;;;;;5.10;1.70;;;;;;;13.91;57.33;99963.26;106210;1256;71180;-80
2023/10/06 07:26:13;;;;;;;3.70;1.60;;;;;;;13.92;57.20;99972.20;106067;1253;60010;-80
2023/10/06 07:28:41;;;;;;;8.30;2.40;;;;;;;13.99;56.60;99974.69;106195;1252;59696;-83
2023/10/06 07:31:16;;;;;;;5.30;1.90;;;;;;;14.04;56.44;99978.34;106045;1259;73123;-82
2023/10/06 07:33:44;;;;;;;4.20;1.80;;;;;;;14.13;55.89;99972.55;106406;1257;69995;-82
2023/10/06 07:36:17;;;;;;;12.40;1.60;;;;;;;14.21;55.65;99975.61;106371;1257;75984;-78
2023/10/06 07:38:46;;;;;;;5.70;1.50;;;;;;;14.30;55.72;99978.56;105978;1257;59503;-79
2023/10/06 07:41:18;;;;;;;5.50;1.70;;;;;;;14.39;55.48;99978.00;105922;1253;59978;-78
2023/10/06 07:43:48;;;;;;;12.30;2.20;;;;;;;14.44;54.99;99980.21;105977;1257;73277;-79
2023/10/06 07:46:16;;;;;;;8.40;1.80;;;;;;;14.47;54.91;99983.49;106397;1253;68862;-77
2023/10/06 07:48:50;;;;;;;9.00;2.40;;;;;;;14.50;54.73;99984.19;107863;1253;72672;-77
2023/10/06 07:51:19;;;;;;;5.30;1.70;;;;;;;14.54;54.63;99991.14;108327;1251;60109;-77
2023/10/06 07:53:46;;;;;;;9.30;1.60;;;;;;;14.57;54.46;99991.86;107264;1257;59504;-77
2023/10/06 07:56:14;;;;;;;10.40;2.30;;;;;;;14.59;54.26;99992.58;106345;1253;72314;-77
2023/10/06 07:58:42;;;;;;;6.40;1.80;;;;;;;14.65;54.09;99992.33;106498;1253;69559;-80
2023/10/06 08:01:12;;;;;;;6.90;2.20;;;;;;;14.79;53.95;99994.41;106665;1253;75183;-78
2023/10/06 08:03:41;;;;;;;5.80;1.60;;;;;;;14.96;53.11;99998.30;106146;1253;59656;-79
2023/10/06 08:06:10;;;;;;;4.20;1.70;;;;;;;15.06;52.44;100000.08;105950;1254;59616;-78
2023/10/06 08:08:38;;;;;;;5.80;1.70;;;;;;;15.11;52.60;100000.34;105996;1253;71773;-80
2023/10/06 08:11:06;;;;;;;8.20;2.10;;;;;;;15.20;52.56;99997.66;106031;1253;68834;-78
2023/10/06 08:13:34;;;;;;;8.60;2.10;;;;;;;15.29;52.40;99998.40;106154;1253;72968;-78
2023/10/06 08:16:02;;;;;;;3.90;1.70;;;;;;;15.37;51.98;99998.35;105993;1253;59617;-77
2023/10/06 08:18:30;;;;;;;2.50;1.70;;;;;;;15.46;51.87;100000.89;105911;1252;59737;-78
2023/10/06 08:21:00;;;;;;;4.80;1.80;;;;;;;15.54;51.64;100003.92;105993;1253;71845;-79
2023/10/06 08:23:29;;;;;;;6.00;1.80;;;;;;;15.61;51.93;100001.25;105961;1253;69140;-79
2023/10/06 08:25:57;;;;;;;2.90;1.70;;;;;;;15.73;51.71;100001.73;106007;1253;72717;-79
2023/10/06 08:28:31;;;;;;;5.90;1.60;;;;;;;15.88;51.30;100006.25;105756;1251;60113;-78
2023/10/06 08:31:02;;;;;;;13.90;2.50;;;;;;;16.04;50.84;100007.09;106001;1254;60085;-77
2023/10/06 08:33:31;;;;;;;2.10;1.50;;;;;;;16.18;49.64;100009.02;105890;1256;72193;-78
2023/10/06 08:36:01;;;;;;;3.40;1.40;;;;;;;16.32;49.42;100007.44;105698;1253;70293;-78
2023/10/06 08:38:30;;;;;;;5.80;1.80;;;;;;;16.48;48.38;100006.02;105999;1253;73142;-78
2023/10/06 08:41:01;;;;;;;6.50;1.50;;;;;;;16.57;47.95;100007.02;106253;1257;59639;-79
2023/10/06 08:43:29;;;;;;;8.80;1.80;;;;;;;16.64;47.88;100006.66;106418;1256;60093;-79
2023/10/06 08:46:00;;;;;;;3.50;1.10;;;;;;;16.77;47.17;100011.17;107102;1253;73010;-78
2023/10/06 08:48:31;;;;;;;6.70;1.70;;;;;;;16.84;47.22;100009.92;107845;1252;69993;-77
2023/10/06 08:51:03;;;;;;;4.90;1.40;;;;;;;17.05;47.02;100008.13;108099;1253;71071;-78
2023/10/06 08:53:31;;;;;;;6.70;2.10;;;;;;;17.32;46.24;100007.90;106600;1253;60127;-78
2023/10/06 08:55:59;;;;;;;3.70;1.50;;;;;;;17.49;46.45;100009.14;108376;1253;60002;-79
2023/10/06 08:58:27;;;;;;;6.70;1.60;;;;;;;17.77;46.28;100009.75;107525;1253;71924;-79
2023/10/06 09:00:55;;;;;;;5.90;1.80;;;;;;;18.10;45.63;100008.23;107290;1253;72338;-76
2023/10/06 09:03:23;;;;;;;4.60;2.00;;;;;;;18.55;45.36;100005.14;108734;1253;72492;-77
2023/10/06 09:05:54;;;;;;;3.90;1.40;;;;;;;19.05;44.33;100018.21;108855;1253;59570;-79
2023/10/06 09:08:22;;;;;;;11.80;1.50;;;;;;;19.53;43.43;100016.80;106235;1253;60980;-78
2023/10/06 09:10:50;;;;;;;5.60;2.00;;;;;;;20.15;42.08;100014.69;106152;1253;71834;-79
2023/10/06 09:13:19;;;;;;;7.90;2.10;;;;;;;20.74;40.91;100010.93;106075;1253;71392;-78
2023/10/06 09:15:57;;;;;;;5.80;1.60;;;;;;;21.26;39.92;100008.27;106568;1254;71689;-79
2023/10/06 09:18:29;;;;;;;5.30;1.80;;;;;;;21.74;38.71;100014.57;106026;1252;61835;-79
2023/10/06 09:21:12;;;;;;;3.20;1.80;;;;;;;22.00;38.13;100009.77;105844;1257;60029;-78
2023/10/06 09:23:40;;;;;;;2.50;1.40;;;;;;;22.32;37.67;100009.35;105996;1251;72080;-77
2023/10/06 09:26:15;;;;;;;3.30;1.70;;;;;;;22.79;37.69;100013.46;105740;1251;70424;-78
2023/10/06 09:28:55;;;;;;;6.60;1.90;;;;;;;23.39;37.02;100011.46;105915;1259;72696;-78
2023/10/06 09:31:37;;;;;;;9.60;2.40;;;;;;;23.94;36.73;100016.05;105936;1252;60109;-77
2023/10/06 09:34:07;;;;;;;8.30;2.20;;;;;;;24.26;35.70;100020.63;106044;1257;60102;-79
2023/10/06 09:36:38;;;;;;;;;;;;;;;24.20;35.33;100024.95;106267;1253;73049;-78
2023/10/06 09:39:15;;;;;;;3.10;2.40;;;;;;;23.84;35.43;100023.61;106005;1253;68433;-79
2023/10/06 09:41:45;;;;;;;5.80;1.90;;;;;;;23.47;35.72;100024.50;105946;1254;72483;-77
2023/10/06 09:44:12;;;;;;;4.60;1.90;;;;;;;23.34;35.84;100027.59;106034;1253;60799;-78
2023/10/06 09:46:43;;;;;;;7.80;1.70;;;;;;;23.56;35.67;100026.82;106254;1258;59544;-79
2023/10/06 09:49:15;;;;;;;4.20;2.00;;;;;;;23.88;35.26;100028.09;107911;1253;73928;-78
2023/10/06 09:51:45;;;;;;;4.40;1.90;;;;;;;24.13;34.44;100030.71;107805;1253;68884;-78
2023/10/06 09:54:14;;;;;;;6.80;1.70;;;;;;;24.18;33.63;100033.83;106806;1253;71490;-80
2023/10/06 09:56:42;;;;;;;3.60;1.60;;;;;;;24.03;33.72;100031.45;106186;1253;60070;-77
2023/10/06 09:59:13;;;;;;;5.40;1.80;;;;;;;24.15;33.73;100040.52;106142;1259;59517;-77
2023/10/06 10:01:47;;;;;;;4.90;1.50;;;;;;;24.24;33.62;100046.65;106427;1255;72207;-79
2023/10/06 10:04:15;;;;;;;3.60;1.70;;;;;;;24.40;33.35;100043.88;106401;1253;71657;-78
2023/10/06 10:06:43;;;;;;;3.00;1.70;;;;;;;24.63;33.00;100034.09;106103;1252;73741;-79
2023/10/06 10:09:18;;;;;;;8.30;2.00;;;;;;;24.70;32.23;100037.48;106040;1253;60072;-78
2023/10/06 10:12:13;;;;;;;3.40;2.00;;;;;;;24.29;32.76;100048.57;105933;1257;59568;-78
2023/10/06 10:14:44;;;;;;;2.30;1.60;;;;;;;23.72;33.12;100043.66;105638;1253;72852;-78
2023/10/06 10:17:13;;;;;;;5.70;2.20;;;;;;;23.34;33.40;100055.45;106559;1254;68825;-78
2023/10/06 10:19:43;;;;;;;4.60;1.90;;;;;;;23.32;33.52;100059.05;105973;1253;71448;-78
2023/10/06 10:22:13;;;;;;;4.00;1.80;;;;;;;23.75;33.36;100064.21;105979;1254;61051;-77
2023/10/06 10:24:42;;;;;;;2.20;1.60;;;;;;;24.14;32.22;100059.55;105801;1253;59719;-79
2023/10/06 10:27:30;;;;;;;4.10;1.40;;;;;;;24.03;32.05;100057.39;105920;1252;71884;-78
2023/10/06 10:29:57;;;;;;;2.20;1.30;;;;;;;23.96;32.10;100058.30;106217;1257;69217;-79
2023/10/06 10:32:26;;;;;;;3.60;1.60;;;;;;;23.80;31.91;100059.73;105887;1253;71371;-80
2023/10/06 10:35:08;;;;;;;2.80;1.30;;;;;;;23.68;32.41;100048.96;105742;1253;60407;-78
2023/10/06 10:37:57;;;;;;;5.30;1.70;;;;;;;23.92;31.80;100050.50;106008;1257;60262;-79
2023/10/06 10:40:29;;;;;;;3.40;1.60;;;;;;;23.90;31.90;100047.70;105872;1254;71826;-77
2023/10/06 10:43:04;;;;;;;5.10;1.60;;;;;;;24.04;32.15;100041.84;106014;1253;69499;-78
2023/10/06 10:45:44;;;;;;;6.20;1.70;;;;;;;24.68;31.62;100043.41;106259;1257;73885;-83
2023/10/06 10:48:15;;;;;;;8.20;1.80;;;;;;;25.37;31.08;100034.89;106594;1253;62320;-83
2023/10/06 10:50:56;;;;;;;7.30;4.40;;;;;;;26.06;30.26;100035.95;108615;1252;60412;-83
2023/10/06 10:53:29;;;;;;;7.10;4.00;;;;;;;26.50;29.61;100037.05;108973;1253;72070;-82
2023/10/06 10:55:56;;;;;;;;;;;;;;;26.46;29.20;100036.31;107300;1258;68748;-80
2023/10/06 10:58:44;;;;;;;2.40;1.80;;;;;;;25.88;29.19;100034.96;106609;1253;71460;-83
2023/10/06 11:01:24;;;;;;;4.50;1.70;;;;;;;25.44;29.96;100027.73;106804;1253;60437;-85
2023/10/06 11:04:30;;;;;;;4.00;2.00;;;;;;;25.92;29.83;100035.65;106363;1252;62273;-82
2023/10/06 11:07:07;;;;;;;13.10;2.80;;;;;;;26.77;28.80;100026.47;107065;1253;74811;-83
2023/10/06 11:09:41;;;;;;;3.10;1.90;;;;;;;27.38;28.20;100027.19;106524;1256;71491;-83
2023/10/06 11:12:25;;;;;;;9.60;2.90;;;;;;;27.86;27.65;100023.00;106130;1253;73627;-84
2023/10/06 11:14:55;;;;;;;8.40;2.50;;;;;;;28.44;27.40;100029.09;106053;1259;62435;-80
2023/10/06 11:17:24;;;;;;;4.40;2.10;;;;;;;29.00;26.41;100024.04;106068;1252;60867;-82
2023/10/06 11:20:16;;;;;;;5.20;2.20;;;;;;;29.46;26.02;100027.80;106329;1257;74845;-84
2023/10/06 11:22:54;;;;;;;10.40;2.40;;;;;;;30.04;25.53;100027.38;106176;1253;70310;-83
2023/10/06 11:25:27;;;;;;;5.20;3.80;;;;;;;30.49;25.46;100026.98;106144;1254;70656;-80
2023/10/06 11:28:00;;;;;;;;;;;;;;;30.93;24.91;100031.92;106063;1254;61041;-81
2023/10/06 11:30:28;;;;;;;4.40;2.40;;;;;;;31.24;25.06;100033.39;106148;1253;62021;-79
2023/10/06 11:32:57;;;;;;;5.40;3.10;;;;;;;31.57;24.73;100027.48;105869;1260;73248;-82
2023/10/06 11:35:24;;;;;;;6.00;2.30;;;;;;;31.61;24.36;100027.73;106098;1258;70259;-79
2023/10/06 11:37:52;;;;;;;10.10;8.30;;;;;;;31.54;24.51;100027.86;106007;1253;74960;-80
2023/10/06 11:40:22;;;;;;;3.10;2.30;;;;;;;31.77;23.96;100028.11;106220;1258;60999;-83